createdAt,value
2023-04-15T00:02:19.838Z,97681.13
2023-04-15T00:04:48.678Z,97680.22
2023-04-15T00:07:18.040Z,97681.44
2023-04-15T00:09:46.130Z,97681.06
2023-04-15T00:12:13.725Z,97674.69
2023-04-15T00:14:41.242Z,97678.97
2023-04-15T00:17:08.681Z,97664.03
2023-04-15T00:19:36.961Z,97667.72
2023-04-15T00:22:04.415Z,97671.81
2023-04-15T00:24:32.753Z,97676.47
2023-04-15T00:27:00.267Z,97684.00
2023-04-15T00:29:28.480Z,97684.28
2023-04-15T00:31:57.063Z,97690.91
2023-04-15T00:34:24.730Z,97692.16
2023-04-15T00:36:52.648Z,97695.00
2023-04-15T00:39:20.770Z,97695.91
2023-04-15T00:41:49.245Z,97694.75
2023-04-15T00:44:18.866Z,97696.19
2023-04-15T00:46:48.697Z,97700.38
2023-04-15T00:49:16.264Z,97703.09
2023-04-15T00:51:43.828Z,97700.34
2023-04-15T00:54:12.252Z,97699.94
2023-04-15T00:56:40.082Z,97699.31
2023-04-15T00:59:08.492Z,97693.16
2023-04-15T01:01:38.369Z,97702.53
2023-04-15T01:04:07.144Z,97700.59
2023-04-15T01:06:34.929Z,97706.91
2023-04-15T01:09:03.526Z,97700.53
2023-04-15T01:11:36.011Z,97704.44
2023-04-15T01:14:04.331Z,97696.56
2023-04-15T01:16:32.114Z,97698.16
2023-04-15T01:19:00.288Z,97703.84
2023-04-15T01:21:28.152Z,97702.94
2023-04-15T01:23:57.110Z,97710.13
2023-04-15T01:26:25.232Z,97701.75
2023-04-15T01:28:52.661Z,97701.72
2023-04-15T01:31:22.136Z,97694.88
2023-04-15T01:33:49.663Z,97704.94
2023-04-15T01:36:17.157Z,97697.59
2023-04-15T01:38:44.629Z,97709.59
2023-04-15T01:41:14.384Z,97715.53
2023-04-15T01:43:41.901Z,97710.19
2023-04-15T01:46:10.263Z,97713.69
2023-04-15T01:48:37.716Z,97703.31
2023-04-15T01:51:05.730Z,97700.38
2023-04-15T01:53:34.306Z,97697.50
2023-04-15T01:56:03.487Z,97702.41
2023-04-15T01:58:31.481Z,97700.44
2023-04-15T02:00:58.944Z,97696.69
2023-04-15T02:03:26.708Z,97704.38
2023-04-15T02:05:54.208Z,97706.09
2023-04-15T02:08:22.447Z,97701.91
2023-04-15T02:10:49.889Z,97704.94
2023-04-15T02:13:17.431Z,97702.41
2023-04-15T02:15:52.596Z,97712.81
2023-04-15T02:18:20.627Z,97723.88
2023-04-15T02:20:48.771Z,97704.50
2023-04-15T02:23:16.902Z,97715.88
2023-04-15T02:25:53.115Z,97713.59
2023-04-15T02:28:22.032Z,97720.50
2023-04-15T02:30:53.738Z,97719.25
2023-04-15T02:33:22.141Z,97716.16
2023-04-15T02:35:49.674Z,97722.72
2023-04-15T02:38:18.035Z,97721.41
2023-04-15T02:40:45.606Z,97728.38
2023-04-15T02:43:13.710Z,97727.88
2023-04-15T02:45:43.572Z,97729.19
2023-04-15T02:48:11.619Z,97737.16
2023-04-15T02:50:40.703Z,97729.53
2023-04-15T02:53:09.980Z,97734.25
2023-04-15T02:55:37.570Z,97735.88
2023-04-15T02:58:05.373Z,97737.78
2023-04-15T03:00:33.077Z,97739.16
2023-04-15T03:03:06.594Z,97733.06
2023-04-15T03:05:34.482Z,97739.94
2023-04-15T03:08:04.836Z,97737.25
2023-04-15T03:10:32.758Z,97740.63
2023-04-15T03:13:02.354Z,97732.06
2023-04-15T03:15:29.839Z,97736.78
2023-04-15T03:17:57.444Z,97743.13
2023-04-15T03:20:25.028Z,97745.78
2023-04-15T03:22:52.852Z,97742.72
2023-04-15T03:25:22.516Z,97748.91
2023-04-15T03:27:50.033Z,97746.69
2023-04-15T03:30:18.666Z,97749.44
2023-04-15T03:32:46.779Z,97751.69
2023-04-15T03:35:14.302Z,97751.81
2023-04-15T03:37:42.028Z,97762.16
2023-04-15T03:40:10.102Z,97765.69
2023-04-15T03:42:37.547Z,97765.31
2023-04-15T03:45:05.895Z,97767.59
2023-04-15T03:47:33.735Z,97767.25
2023-04-15T03:50:01.203Z,97769.16
2023-04-15T03:52:28.624Z,97779.66
2023-04-15T03:54:56.069Z,97768.41
2023-04-15T03:57:23.956Z,97770.16
2023-04-15T03:59:51.419Z,97771.25
2023-04-15T04:02:19.151Z,97774.75
2023-04-15T04:04:47.098Z,97765.94
2023-04-15T04:07:18.371Z,97772.66
2023-04-15T04:09:47.340Z,97765.63
2023-04-15T04:12:15.096Z,97770.84
2023-04-15T04:14:42.682Z,97766.19
2023-04-15T04:17:10.590Z,97773.56
2023-04-15T04:19:38.201Z,97783.28
2023-04-15T04:22:06.518Z,97779.34
2023-04-15T04:24:34.157Z,97778.81
2023-04-15T04:27:02.164Z,97778.28
2023-04-15T04:29:29.656Z,97780.78
2023-04-15T04:31:57.183Z,97780.72
2023-04-15T04:34:24.677Z,97795.22
2023-04-15T04:36:52.167Z,97793.00
2023-04-15T04:39:19.619Z,97791.91
2023-04-15T04:41:47.299Z,97792.03
2023-04-15T04:44:14.809Z,97800.59
2023-04-15T04:46:42.242Z,97795.66
2023-04-15T04:49:09.928Z,97789.50
2023-04-15T04:51:37.540Z,97784.66
2023-04-15T04:54:05.043Z,97783.22
2023-04-15T04:56:34.292Z,97783.00
2023-04-15T04:59:02.170Z,97780.13
2023-04-15T05:01:29.874Z,97785.25
2023-04-15T05:03:57.630Z,97779.72
2023-04-15T05:06:25.234Z,97783.84
2023-04-15T05:08:52.871Z,97787.28
2023-04-15T05:11:20.421Z,97789.84
2023-04-15T05:13:47.897Z,97791.03
2023-04-15T05:16:15.969Z,97791.78
2023-04-15T05:18:43.476Z,97787.66
2023-04-15T05:21:11.510Z,97790.63
2023-04-15T05:23:39.460Z,97780.84
2023-04-15T05:26:07.017Z,97780.53
2023-04-15T05:28:35.090Z,97772.13
2023-04-15T05:31:03.238Z,97782.03
2023-04-15T05:33:30.851Z,97772.91
2023-04-15T05:35:58.364Z,97771.56
2023-04-15T05:38:26.187Z,97778.13
2023-04-15T05:40:53.745Z,97787.13
2023-04-15T05:43:21.593Z,97783.88
2023-04-15T05:45:49.096Z,97788.41
2023-04-15T05:48:16.644Z,97767.91
2023-04-15T05:50:44.308Z,97758.47
2023-04-15T05:53:11.850Z,97758.00
2023-04-15T05:55:39.385Z,97758.75
2023-04-15T05:58:06.967Z,97747.91
2023-04-15T06:00:34.645Z,97747.75
2023-04-15T06:03:02.449Z,97755.63
2023-04-15T06:05:29.996Z,97740.91
2023-04-15T06:07:57.708Z,97744.38
2023-04-15T06:10:25.200Z,97735.84
2023-04-15T06:12:53.626Z,97734.84
2023-04-15T06:15:21.169Z,97735.78
2023-04-15T06:17:48.678Z,97726.69
2023-04-15T06:20:16.420Z,97723.34
2023-04-15T06:22:43.990Z,97714.31
2023-04-15T06:25:11.722Z,97719.59
2023-04-15T06:27:39.370Z,97706.63
2023-04-15T06:30:08.002Z,97711.75
2023-04-15T06:32:35.751Z,97715.00
2023-04-15T06:35:04.047Z,97707.81
2023-04-15T06:37:32.938Z,97711.00
2023-04-15T06:40:00.602Z,97710.94
2023-04-15T06:42:28.155Z,97711.13
2023-04-15T06:44:55.742Z,97710.97
2023-04-15T06:47:23.239Z,97714.50
2023-04-15T06:49:50.976Z,97705.59
2023-04-15T06:52:18.444Z,97702.88
2023-04-15T06:54:45.964Z,97712.25
2023-04-15T06:57:13.451Z,97706.16
2023-04-15T06:59:43.697Z,97700.69
2023-04-15T07:02:14.108Z,97706.09
2023-04-15T07:04:41.773Z,97706.41
2023-04-15T07:07:09.487Z,97695.00
2023-04-15T07:09:36.891Z,97710.84
2023-04-15T07:12:04.412Z,97723.44
2023-04-15T07:14:31.953Z,97700.19
2023-04-15T07:16:59.447Z,97709.09
2023-04-15T07:19:27.186Z,97684.09
2023-04-15T07:21:54.650Z,97680.34
2023-04-15T07:24:23.258Z,97672.47
2023-04-15T07:26:51.211Z,97698.00
2023-04-15T07:29:20.042Z,97699.00
2023-04-15T07:31:47.488Z,97682.94
2023-04-15T07:34:15.036Z,97675.69
2023-04-15T07:36:43.219Z,97699.81
2023-04-15T07:39:11.036Z,97689.72
2023-04-15T07:41:39.034Z,97699.19
2023-04-15T07:44:06.478Z,97702.75
2023-04-15T07:46:34.203Z,97699.94
2023-04-15T07:49:02.045Z,97705.94
2023-04-15T07:51:30.746Z,97697.63
2023-04-15T07:53:58.708Z,97696.50
2023-04-15T07:56:26.580Z,97696.16
2023-04-15T07:58:54.084Z,97714.31
2023-04-15T08:01:21.774Z,97705.47
2023-04-15T08:03:49.414Z,97709.44
2023-04-15T08:06:17.260Z,97725.75
2023-04-15T08:08:46.751Z,97711.81
2023-04-15T08:11:14.722Z,97725.09
2023-04-15T08:13:42.261Z,97719.88
2023-04-15T08:16:24.743Z,97735.09
2023-04-15T08:21:21.435Z,97734.66
2023-04-15T08:23:52.274Z,97739.41
2023-04-15T08:26:21.625Z,97753.59
2023-04-15T08:28:50.062Z,97744.38
2023-04-15T08:31:19.101Z,97743.72
2023-04-15T08:33:46.824Z,97743.56
2023-04-15T08:36:14.964Z,97746.06
2023-04-15T08:38:44.517Z,97751.19
2023-04-15T08:41:31.783Z,97753.84
2023-04-15T08:44:05.240Z,97745.13
2023-04-15T08:46:37.052Z,97763.13
2023-04-15T08:49:05.683Z,97759.88
2023-04-15T08:51:34.070Z,97759.91
2023-04-15T08:54:03.475Z,97764.53
2023-04-15T08:56:33.619Z,97762.16
2023-04-15T08:59:01.871Z,97757.03
2023-04-15T09:01:29.804Z,97768.47
2023-04-15T09:03:59.845Z,97769.13
2023-04-15T09:06:27.384Z,97767.19
2023-04-15T09:08:54.995Z,97766.41
2023-04-15T09:11:22.795Z,97760.66
2023-04-15T09:13:50.819Z,97758.47
2023-04-15T09:16:18.880Z,97770.38
2023-04-15T09:18:46.503Z,97777.97
2023-04-15T09:21:17.663Z,97790.56
2023-04-15T09:23:58.390Z,97779.31
2023-04-15T09:26:34.086Z,97780.81
2023-04-15T09:29:07.935Z,97788.44
2023-04-15T09:31:37.141Z,97787.03
2023-04-15T09:34:06.213Z,97784.38
2023-04-15T09:36:56.849Z,97781.41
2023-04-15T09:39:24.499Z,97777.50
2023-04-15T09:42:08.481Z,97779.47
2023-04-15T09:44:36.490Z,97780.44
2023-04-15T09:47:04.024Z,97775.00
2023-04-15T09:49:31.764Z,97771.69
2023-04-15T09:52:06.075Z,97763.53
2023-04-15T09:54:38.843Z,97773.56
2023-04-15T09:57:09.948Z,97770.09
2023-04-15T09:59:37.749Z,97775.28
2023-04-15T10:02:09.451Z,97778.09
2023-04-15T10:04:41.628Z,97768.88
2023-04-15T10:07:10.085Z,97778.66
2023-04-15T10:09:39.591Z,97757.03
2023-04-15T10:12:07.603Z,97754.69
2023-04-15T10:14:38.615Z,97745.13
2023-04-15T10:17:08.298Z,97749.59
2023-04-15T10:19:38.033Z,97763.59
2023-04-15T10:22:06.885Z,97756.59
2023-04-15T10:24:36.474Z,97753.91
2023-04-15T10:27:05.809Z,97746.88
2023-04-15T10:29:34.098Z,97763.47
2023-04-15T10:32:03.072Z,97752.56
2023-04-15T10:34:32.795Z,97744.00
2023-04-15T10:37:05.822Z,97750.72
2023-04-15T10:39:33.208Z,97753.53
2023-04-15T10:42:15.411Z,97756.16
2023-04-15T10:44:56.429Z,97758.56
2023-04-15T10:47:24.114Z,97755.16
2023-04-15T10:50:02.726Z,97762.97
2023-04-15T10:52:30.232Z,97753.19
2023-04-15T10:55:19.511Z,97755.47
2023-04-15T10:57:47.094Z,97757.75
2023-04-15T11:00:19.762Z,97767.69
2023-04-15T11:02:57.389Z,97760.78
2023-04-15T11:05:43.372Z,97761.56
2023-04-15T11:08:12.826Z,97756.94
2023-04-15T11:10:40.346Z,97762.22
2023-04-15T11:13:11.010Z,97761.59
2023-04-15T11:15:47.061Z,97740.09
2023-04-15T11:18:24.033Z,97717.28
2023-04-15T11:20:54.953Z,97721.47
2023-04-15T11:23:46.791Z,97727.31
2023-04-15T11:26:15.458Z,97730.22
2023-04-15T11:28:45.835Z,97732.75
2023-04-15T11:31:20.137Z,97730.22
2023-04-15T11:33:59.519Z,97740.22
2023-04-15T11:36:30.383Z,97736.28
2023-04-15T11:38:59.824Z,97733.66
2023-04-15T11:41:27.407Z,97738.22
2023-04-15T11:43:54.894Z,97729.94
2023-04-15T11:46:30.780Z,97729.97
2023-04-15T11:48:58.337Z,97734.44
2023-04-15T11:51:26.114Z,97724.84
2023-04-15T11:53:54.845Z,97708.72
2023-04-15T11:56:25.674Z,97732.09
2023-04-15T11:58:59.371Z,97721.19
2023-04-15T12:01:47.266Z,97731.53
2023-04-15T12:04:20.887Z,97736.94
2023-04-15T12:06:50.733Z,97731.59
2023-04-15T12:09:20.252Z,97730.25
2023-04-15T12:11:55.088Z,97732.69
2023-04-15T12:14:32.059Z,97743.88
2023-04-15T12:17:02.840Z,97729.94
2023-04-15T12:19:37.958Z,97729.91
2023-04-15T12:22:11.309Z,97734.66
2023-04-15T12:24:40.016Z,97735.63
2023-04-15T12:27:12.718Z,97735.63
2023-04-15T12:29:43.212Z,97740.59
2023-04-15T12:32:16.878Z,97741.13
2023-04-15T12:34:52.449Z,97729.91
2023-04-15T12:37:21.043Z,97736.66
2023-04-15T12:39:50.177Z,97734.00
2023-04-15T12:42:19.006Z,97729.41
2023-04-15T12:44:47.358Z,97732.13
2023-04-15T12:47:15.414Z,97733.75
2023-04-15T12:49:42.849Z,97727.31
2023-04-15T12:52:10.529Z,97718.22
2023-04-15T12:54:38.159Z,97715.06
2023-04-15T12:57:07.417Z,97710.81
2023-04-15T12:59:36.126Z,97711.84
2023-04-15T13:02:04.359Z,97711.56
2023-04-15T13:04:32.163Z,97721.88
2023-04-15T13:06:59.748Z,97722.25
2023-04-15T13:09:27.179Z,97721.69
2023-04-15T13:11:54.896Z,97731.63
2023-04-15T13:14:22.393Z,97726.16
2023-04-15T13:16:49.880Z,97726.97
2023-04-15T13:19:17.335Z,97719.09
2023-04-15T13:21:44.796Z,97713.00
2023-04-15T13:24:12.271Z,97711.78
2023-04-15T13:26:39.757Z,97727.81
2023-04-15T13:29:07.353Z,97720.06
2023-04-15T13:31:35.012Z,97716.09
2023-04-15T13:34:02.729Z,97699.38
2023-04-15T13:36:30.684Z,97695.16
2023-04-15T13:38:58.479Z,97694.69
2023-04-15T13:41:25.957Z,97690.63
2023-04-15T13:43:53.346Z,97684.78
2023-04-15T13:46:21.095Z,97699.44
2023-04-15T13:48:48.606Z,97691.84
2023-04-15T13:51:16.224Z,97687.81
2023-04-15T13:53:45.993Z,97695.88
2023-04-15T13:56:13.525Z,97696.31
2023-04-15T13:58:41.811Z,97699.41
2023-04-15T14:01:09.360Z,97703.28
2023-04-15T14:03:37.383Z,97701.56
2023-04-15T14:06:06.422Z,97693.97
2023-04-15T14:08:34.169Z,97703.03
2023-04-15T14:11:01.684Z,97699.84
2023-04-15T14:13:29.447Z,97702.47
2023-04-15T14:15:57.629Z,97709.59
2023-04-15T14:18:25.605Z,97714.25
2023-04-15T14:20:53.231Z,97714.91
2023-04-15T14:23:20.848Z,97710.44
2023-04-15T14:25:51.907Z,97709.53
2023-04-15T14:28:19.493Z,97714.97
2023-04-15T14:30:47.115Z,97709.97
2023-04-15T14:33:14.635Z,97710.53
2023-04-15T14:35:42.213Z,97712.47
2023-04-15T14:38:11.291Z,97705.94
2023-04-15T14:40:39.232Z,97710.22
2023-04-15T14:43:06.849Z,97707.06
2023-04-15T14:45:34.989Z,97706.00
2023-04-15T14:48:02.512Z,97713.44
2023-04-15T14:50:30.112Z,97710.38
2023-04-15T14:52:59.235Z,97721.66
2023-04-15T14:55:26.857Z,97721.34
2023-04-15T14:57:54.430Z,97717.59
2023-04-15T15:00:22.060Z,97725.44
2023-04-15T15:02:49.748Z,97725.28
2023-04-15T15:05:17.562Z,97728.25
2023-04-15T15:07:45.759Z,97734.41
2023-04-15T15:10:13.444Z,97733.03
2023-04-15T15:12:40.981Z,97736.84
2023-04-15T15:15:25.037Z,97736.06
2023-04-15T15:17:55.131Z,97746.56
2023-04-15T15:20:23.750Z,97744.16
2023-04-15T15:22:51.665Z,97747.94
2023-04-15T15:25:19.625Z,97750.69
2023-04-15T15:27:47.547Z,97751.84
2023-04-15T15:30:15.682Z,97751.78
2023-04-15T15:32:43.706Z,97764.25
2023-04-15T15:35:11.528Z,97768.00
2023-04-15T15:37:39.091Z,97780.28
2023-04-15T15:40:08.227Z,97777.06
2023-04-15T15:42:36.042Z,97768.94
2023-04-15T15:45:04.865Z,97771.28
2023-04-15T15:47:33.863Z,97770.78
2023-04-15T15:50:02.705Z,97766.53
2023-04-15T15:52:31.841Z,97772.94
2023-04-15T15:54:59.405Z,97778.09
2023-04-15T15:57:26.862Z,97778.25
2023-04-15T16:00:04.961Z,97780.06
2023-04-15T16:05:11.383Z,97788.63
2023-04-15T16:07:38.906Z,97792.19
2023-04-15T16:10:07.433Z,97790.41
2023-04-15T16:12:35.193Z,97788.78
2023-04-15T16:15:03.856Z,97788.66
2023-04-15T16:17:31.434Z,97787.75
2023-04-15T16:20:01.149Z,97785.84
2023-04-15T16:22:30.416Z,97793.50
2023-04-15T16:24:59.690Z,97795.84
2023-04-15T16:27:28.086Z,97802.66
2023-04-15T16:29:55.768Z,97812.03
2023-04-15T16:32:23.349Z,97817.69
2023-04-15T16:34:53.160Z,97819.28
2023-04-15T16:37:21.639Z,97824.72
2023-04-15T16:39:49.169Z,97837.50
2023-04-15T16:42:17.254Z,97841.91
2023-04-15T16:44:44.727Z,97840.69
2023-04-15T16:47:12.234Z,97848.34
2023-04-15T16:49:39.687Z,97851.97
2023-04-15T16:52:07.706Z,97851.56
2023-04-15T16:54:37.688Z,97853.00
2023-04-15T16:57:05.143Z,97861.84
2023-04-15T16:59:32.640Z,97871.81
2023-04-15T17:02:00.624Z,97870.81
2023-04-15T17:04:28.787Z,97889.44
2023-04-15T17:06:56.460Z,97886.09
2023-04-15T17:09:23.971Z,97885.31
2023-04-15T17:11:51.496Z,97889.38
2023-04-15T17:14:19.039Z,97894.69
2023-04-15T17:16:47.576Z,97895.91
2023-04-15T17:19:15.027Z,97892.16
2023-04-15T17:21:43.450Z,97894.41
2023-04-15T17:24:11.429Z,97904.69
2023-04-15T17:26:38.922Z,97903.47
2023-04-15T17:29:06.859Z,97909.53
2023-04-15T17:31:34.721Z,97908.13
2023-04-15T17:34:09.653Z,97909.31
2023-04-15T17:36:38.663Z,97918.56
2023-04-15T17:39:06.662Z,97924.00
2023-04-15T17:41:34.468Z,97931.63
2023-04-15T17:44:01.994Z,97930.81
2023-04-15T17:46:29.980Z,97936.84
2023-04-15T17:48:57.494Z,97931.41
2023-04-15T17:51:24.958Z,97939.81
2023-04-15T17:54:07.530Z,97937.81
2023-04-15T17:56:35.494Z,97944.19
2023-04-15T17:59:03.565Z,97949.81
2023-04-15T18:01:32.295Z,97946.16
2023-04-15T18:03:59.948Z,97952.19
2023-04-15T18:06:29.140Z,97957.81
2023-04-15T18:08:56.622Z,97961.91
2023-04-15T18:11:24.168Z,97964.50
2023-04-15T18:13:51.749Z,97965.88
2023-04-15T18:16:19.372Z,97967.31
2023-04-15T18:18:46.975Z,97967.47
2023-04-15T18:21:16.698Z,97977.34
2023-04-15T18:23:45.350Z,97974.91
2023-04-15T18:26:13.506Z,97984.75
2023-04-15T18:28:41.211Z,97979.91
2023-04-15T18:31:08.790Z,97985.94
2023-04-15T18:33:36.344Z,97986.31
2023-04-15T18:36:04.085Z,97982.31
2023-04-15T18:38:31.890Z,97984.91
2023-04-15T18:40:59.452Z,97980.69
2023-04-15T18:43:27.020Z,97983.47
2023-04-15T18:45:54.998Z,97981.66
2023-04-15T18:48:22.850Z,97983.09
2023-04-15T18:50:53.979Z,97996.72
2023-04-15T18:53:23.065Z,98001.94
2023-04-15T18:55:50.684Z,98006.75
2023-04-15T18:58:18.138Z,98007.72
2023-04-15T19:00:45.677Z,98006.31
2023-04-15T19:03:14.753Z,98005.03
2023-04-15T19:05:42.591Z,98000.34
2023-04-15T19:08:12.366Z,97976.38
2023-04-15T19:10:39.921Z,97983.16
2023-04-15T19:13:07.433Z,97983.69
2023-04-15T19:15:35.491Z,97993.06
2023-04-15T19:18:05.339Z,97990.59
2023-04-15T19:20:34.857Z,97984.97
2023-04-15T19:23:04.773Z,97987.13
2023-04-15T19:25:32.659Z,97986.88
2023-04-15T19:28:00.264Z,97980.84
2023-04-15T19:30:28.711Z,97984.41
2023-04-15T19:32:56.224Z,97985.78
2023-04-15T19:35:23.664Z,97984.34
2023-04-15T19:37:51.214Z,97978.50
2023-04-15T19:40:18.718Z,97973.28
2023-04-15T19:42:46.116Z,97974.50
2023-04-15T19:45:13.811Z,97973.50
2023-04-15T19:47:41.469Z,97978.72
2023-04-15T19:50:11.896Z,97977.25
2023-04-15T19:52:39.357Z,97990.50
2023-04-15T19:55:07.212Z,97999.31
2023-04-15T19:57:34.763Z,97990.31
2023-04-15T20:00:05.963Z,97982.47
2023-04-15T20:02:33.624Z,97986.91
2023-04-15T20:05:01.425Z,97982.69
2023-04-15T20:07:28.995Z,97982.69
2023-04-15T20:09:56.644Z,97979.06
2023-04-15T20:12:50.206Z,97975.47
2023-04-15T20:15:12.754Z,97966.81
2023-04-15T20:17:40.468Z,97977.09
2023-04-15T20:20:09.121Z,97974.28
2023-04-15T20:22:36.616Z,97981.13
2023-04-15T20:25:04.978Z,97980.91
2023-04-15T20:27:32.432Z,97984.97
2023-04-15T20:29:59.885Z,97993.59
2023-04-15T20:32:28.933Z,97997.03
2023-04-15T20:34:56.556Z,97987.59
2023-04-15T20:37:24.028Z,97991.25
2023-04-15T20:39:51.589Z,97990.59
2023-04-15T20:42:19.827Z,97995.22
2023-04-15T20:44:47.358Z,97997.28
2023-04-15T20:47:14.808Z,98015.19
2023-04-15T20:49:42.296Z,98021.19
2023-04-15T20:52:10.164Z,98003.28
2023-04-15T20:54:37.617Z,98009.50
2023-04-15T20:57:05.034Z,98001.88
2023-04-15T20:59:34.827Z,97999.03
2023-04-15T21:02:02.685Z,97998.06
2023-04-15T21:04:30.714Z,98005.28
2023-04-15T21:06:58.264Z,98005.59
2023-04-15T21:09:25.923Z,97999.22
2023-04-15T21:12:01.063Z,98015.16
2023-04-15T21:14:29.556Z,98013.72
2023-04-15T21:16:58.949Z,98013.28
2023-04-15T21:19:26.640Z,98019.31
2023-04-15T21:21:54.216Z,98019.13
2023-04-15T21:24:21.719Z,98014.84
2023-04-15T21:26:50.377Z,98018.19
2023-04-15T21:29:18.118Z,98009.84
2023-04-15T21:31:45.902Z,98016.66
2023-04-15T21:34:13.547Z,98014.09
2023-04-15T21:36:41.068Z,98018.09
2023-04-15T21:39:08.663Z,98017.41
2023-04-15T21:41:39.176Z,98016.94
2023-04-15T21:44:06.755Z,98018.22
2023-04-15T21:46:35.581Z,98016.06
2023-04-15T21:49:07.112Z,98015.34
2023-04-15T21:51:35.176Z,98013.34
2023-04-15T21:54:02.907Z,98018.75
2023-04-15T21:56:30.372Z,98018.94
2023-04-15T21:58:58.190Z,98018.94
2023-04-15T22:01:26.511Z,98025.22
2023-04-15T22:03:54.282Z,98019.31
2023-04-15T22:06:22.050Z,98026.03
2023-04-15T22:08:56.764Z,98025.47
2023-04-15T22:11:30.469Z,98025.31
2023-04-15T22:13:59.271Z,98030.44
2023-04-15T22:16:27.360Z,98021.16
2023-04-15T22:18:55.796Z,98024.94
2023-04-15T22:21:23.860Z,98022.50
2023-04-15T22:23:52.255Z,98022.69
2023-04-15T22:26:19.718Z,98027.56
2023-04-15T22:28:47.250Z,98024.94
2023-04-15T22:31:15.453Z,98021.97
2023-04-15T22:33:43.001Z,98021.34
2023-04-15T22:36:10.718Z,98023.50
2023-04-15T22:38:38.199Z,98027.91
2023-04-15T22:41:05.707Z,98026.75
2023-04-15T22:43:33.126Z,98021.69
2023-04-15T22:46:01.424Z,98021.16
2023-04-15T22:48:29.005Z,98032.38
2023-04-15T22:50:56.518Z,98025.84
2023-04-15T22:53:24.576Z,98022.44
2023-04-15T22:55:52.307Z,98019.91
2023-04-15T22:58:19.814Z,98018.75
2023-04-15T23:00:47.425Z,98012.56
2023-04-15T23:03:15.089Z,98025.22
2023-04-15T23:05:44.980Z,98030.69
2023-04-15T23:08:12.392Z,98024.34
2023-04-15T23:10:40.245Z,98029.88
2023-04-15T23:13:07.805Z,98034.72
2023-04-15T23:15:36.028Z,98025.28
2023-04-15T23:18:03.649Z,98033.34
2023-04-15T23:20:31.114Z,98041.25
2023-04-15T23:22:58.725Z,98040.50
2023-04-15T23:25:26.207Z,98039.06
2023-04-15T23:27:53.859Z,98037.44
2023-04-15T23:30:21.733Z,98037.31
2023-04-15T23:32:50.286Z,98040.81
2023-04-15T23:35:17.908Z,98036.63
2023-04-15T23:37:45.521Z,98032.44
2023-04-15T23:40:14.103Z,98026.38
2023-04-15T23:42:42.108Z,98034.63
2023-04-15T23:45:10.502Z,98038.84
2023-04-15T23:47:39.133Z,98037.16
2023-04-15T23:50:09.045Z,98053.63
2023-04-15T23:52:36.963Z,98058.44
2023-04-15T23:55:04.945Z,98043.19
2023-04-15T23:57:32.376Z,98044.41
